createdAt,value
2019-04-20T00:01:01.674Z,65.87
2019-04-20T00:06:09.055Z,66.72
2019-04-20T00:11:21.871Z,67.61
2019-04-20T00:16:23.080Z,68.29
2019-04-20T00:21:53.411Z,68.46
2019-04-20T00:27:16.309Z,68.20
2019-04-20T00:32:12.508Z,67.86
2019-04-20T00:37:08.904Z,67.56
2019-04-20T00:42:16.276Z,67.26
2019-04-20T00:47:34.888Z,66.99
2019-04-20T00:52:42.491Z,66.31
2019-04-20T00:57:46.376Z,65.73
2019-04-20T01:02:54.106Z,64.94
2019-04-20T01:08:02.144Z,64.22
2019-04-20T01:13:12.203Z,64.12
2019-04-20T01:18:15.188Z,63.76
2019-04-20T01:23:23.778Z,63.79
2019-04-20T01:28:46.366Z,63.67
2019-04-20T01:33:46.087Z,63.19
2019-04-20T01:38:57.803Z,62.89
2019-04-20T01:43:50.210Z,62.93
2019-04-20T01:48:59.993Z,63.04
2019-04-20T01:54:24.934Z,63.09
2019-04-20T01:59:37.976Z,63.62
2019-04-20T02:04:39.042Z,63.88
2019-04-20T02:09:48.506Z,63.87
2019-04-20T02:14:55.262Z,64.48
2019-04-20T02:20:15.729Z,65.10
2019-04-20T02:25:03.834Z,65.74
2019-04-20T02:36:04.642Z,66.16
2019-04-20T02:41:11.547Z,65.95
2019-04-20T02:46:12.322Z,66.14
2019-04-20T02:51:26.241Z,66.14
2019-04-20T02:56:32.018Z,65.97
2019-04-20T03:01:36.816Z,65.05
2019-04-20T03:06:36.308Z,64.68
2019-04-20T03:11:59.589Z,64.48
2019-04-20T03:16:57.172Z,63.85
2019-04-20T03:22:09.463Z,63.41
2019-04-20T03:27:12.385Z,63.63
2019-04-20T03:37:42.205Z,64.67
2019-04-20T03:42:22.375Z,65.14
2019-04-20T03:47:38.577Z,65.75
2019-04-20T03:53:02.750Z,66.34
2019-04-20T03:58:17.040Z,66.47
2019-04-20T04:03:36.159Z,66.71
2019-04-20T04:08:24.759Z,66.79
2019-04-20T04:13:22.915Z,66.43
2019-04-20T04:18:36.844Z,66.12
2019-04-20T04:23:49.015Z,65.93
2019-04-20T04:29:00.297Z,65.48
2019-04-20T04:34:10.769Z,65.20
2019-04-20T04:39:22.164Z,65.14
2019-04-20T04:44:21.447Z,65.40
2019-04-20T04:49:20.840Z,66.31
2019-04-20T04:54:28.822Z,66.80
2019-04-20T04:59:25.796Z,66.53
2019-04-20T05:05:08.610Z,66.11
2019-04-20T05:09:48.644Z,65.30
2019-04-20T05:15:04.313Z,64.44
2019-04-20T05:20:19.023Z,64.18
2019-04-20T05:25:30.904Z,63.41
2019-04-20T05:30:24.546Z,63.01
2019-04-20T05:35:49.937Z,61.27
2019-04-20T05:40:55.714Z,61.56
2019-04-20T05:45:58.699Z,61.06
2019-04-20T05:51:12.162Z,60.84
2019-04-20T05:56:17.269Z,60.77
2019-04-20T06:01:26.930Z,61.37
2019-04-20T06:06:34.580Z,61.75
2019-04-20T06:11:47.832Z,61.31
2019-04-20T06:16:59.795Z,61.07
2019-04-20T06:22:12.596Z,60.67
2019-04-20T06:27:16.378Z,60.78
2019-04-20T06:32:28.785Z,60.69
2019-04-20T06:37:29.622Z,61.40
2019-04-20T06:42:36.633Z,62.36
2019-04-20T06:47:47.010Z,60.17
2019-04-20T06:52:52.713Z,59.08
2019-04-20T06:58:22.102Z,59.25
2019-04-20T07:03:17.139Z,58.39
2019-04-20T07:08:37.399Z,58.51
2019-04-20T07:13:19.993Z,58.49
2019-04-20T07:18:35.654Z,59.57
2019-04-20T07:23:41.884Z,60.93
2019-04-20T07:28:56.797Z,58.51
2019-04-20T07:33:59.354Z,56.72
2019-04-20T07:39:07.592Z,56.32
2019-04-20T07:44:11.795Z,57.60
2019-04-20T07:49:22.441Z,58.85
2019-04-20T07:54:31.625Z,60.84
2019-04-20T07:59:25.230Z,60.97
2019-04-20T08:04:44.212Z,62.10
2019-04-20T08:09:44.265Z,60.90
2019-04-20T08:15:16.598Z,61.90
2019-04-20T08:20:09.251Z,60.99
2019-04-20T08:25:08.593Z,60.50
2019-04-20T08:30:30.909Z,59.93
2019-04-20T08:35:40.361Z,60.31
2019-04-20T08:40:43.599Z,59.73
2019-04-20T08:45:57.460Z,58.46
2019-04-20T08:50:57.434Z,57.48
2019-04-20T08:56:00.257Z,58.96
2019-04-20T09:00:58.809Z,57.45
2019-04-20T09:06:09.813Z,55.23
2019-04-20T09:11:25.002Z,53.95
2019-04-20T09:16:19.874Z,52.77
2019-04-20T09:21:35.553Z,50.86
2019-04-20T09:26:50.268Z,47.02
2019-04-20T09:31:52.097Z,46.97
2019-04-20T09:37:22.424Z,46.61
2019-04-20T09:42:15.212Z,45.05
2019-04-20T09:47:28.375Z,45.31
2019-04-20T09:52:46.414Z,41.38
2019-04-20T09:57:54.228Z,39.16
2019-04-20T10:02:43.383Z,38.44
2019-04-20T10:07:56.026Z,34.28
2019-04-20T10:12:58.372Z,36.23
2019-04-20T10:18:05.746Z,32.72
2019-04-20T10:23:12.472Z,32.31
2019-04-20T10:28:19.422Z,32.63
2019-04-20T10:33:25.791Z,33.02
2019-04-20T10:38:34.294Z,32.77
2019-04-20T10:43:40.756Z,34.50
2019-04-20T10:48:51.670Z,33.22
2019-04-20T10:53:56.203Z,32.92
2019-04-20T10:59:01.539Z,35.06
2019-04-20T11:04:08.361Z,33.02
2019-04-20T11:09:14.324Z,32.49
2019-04-20T11:14:26.606Z,30.99
2019-04-20T11:19:27.439Z,33.00
2019-04-20T11:24:34.363Z,31.05
2019-04-20T11:29:40.240Z,28.64
2019-04-20T11:34:47.032Z,25.52
2019-04-20T11:39:52.917Z,26.09
2019-04-20T11:44:58.402Z,24.84
2019-04-20T11:50:03.839Z,25.22
2019-04-20T11:55:10.535Z,24.20
2019-04-20T12:00:19.200Z,24.41
2019-04-20T12:05:32.411Z,25.06
2019-04-20T12:10:33.135Z,22.93
2019-04-20T12:15:39.550Z,22.97
2019-04-20T12:20:44.999Z,29.71
2019-04-20T12:25:50.406Z,32.29
2019-04-20T12:31:03.042Z,33.11
2019-04-20T12:36:03.243Z,33.48
2019-04-20T12:41:11.031Z,35.79
2019-04-20T12:46:18.328Z,37.56
2019-04-20T12:51:30.382Z,37.94
2019-04-20T12:56:30.647Z,38.23
2019-04-20T13:01:37.315Z,35.96
2019-04-20T13:06:44.676Z,35.17
2019-04-20T13:12:04.430Z,35.52
2019-04-20T13:17:06.309Z,36.21
2019-04-20T13:22:12.965Z,34.38
2019-04-20T13:27:18.698Z,30.87
2019-04-20T13:32:25.576Z,34.72
2019-04-20T13:37:31.867Z,32.75
2019-04-20T13:42:38.175Z,34.83
2019-04-20T13:47:43.571Z,36.52
2019-04-20T13:52:49.373Z,40.12
2019-04-20T13:58:00.334Z,41.19
2019-04-20T14:03:08.971Z,42.10
2019-04-20T14:08:21.130Z,42.50
2019-04-20T14:13:36.556Z,43.82
2019-04-20T14:18:33.706Z,42.31
2019-04-20T14:23:39.143Z,41.30
2019-04-20T14:28:45.128Z,39.28
2019-04-20T14:33:50.914Z,39.16
2019-04-20T14:38:56.146Z,38.59
2019-04-20T14:44:01.642Z,37.13
2019-04-20T14:49:07.079Z,37.81
2019-04-20T14:54:13.775Z,37.04
2019-04-20T14:59:25.323Z,37.04
2019-04-20T15:04:32.044Z,37.40
2019-04-20T15:09:39.374Z,36.70
2019-04-20T15:14:44.995Z,35.33
2019-04-20T15:20:03.645Z,35.68
2019-04-20T15:25:09.637Z,35.81
2019-04-20T15:30:16.228Z,37.12
2019-04-20T15:35:23.355Z,34.76
2019-04-20T15:40:29.033Z,40.90
2019-04-20T15:45:34.296Z,45.13
2019-04-20T15:50:41.360Z,45.66
2019-04-20T15:55:48.747Z,45.09
2019-04-20T16:00:54.636Z,41.66
2019-04-20T16:06:03.257Z,39.62
2019-04-20T16:11:11.427Z,41.38
2019-04-20T16:16:16.976Z,41.40
2019-04-20T16:21:26.068Z,39.92
2019-04-20T16:26:35.589Z,43.96
2019-04-20T16:31:43.934Z,46.18
2019-04-20T16:36:50.132Z,45.86
2019-04-20T16:41:56.178Z,44.41
2019-04-20T16:47:01.616Z,45.43
2019-04-20T16:52:07.403Z,45.90
2019-04-20T16:57:14.211Z,48.01
2019-04-20T17:02:21.172Z,49.19
2019-04-20T17:07:39.414Z,50.03
2019-04-20T17:12:46.050Z,48.34
2019-04-20T17:17:53.156Z,47.60
2019-04-20T17:22:58.537Z,46.84
2019-04-20T17:28:24.801Z,47.45
2019-04-20T17:33:47.499Z,47.77
2019-04-20T17:38:48.474Z,46.97
2019-04-20T17:44:11.655Z,48.06
2019-04-20T17:49:13.617Z,47.77
2019-04-20T17:54:23.495Z,47.13
2019-04-20T17:59:30.288Z,45.57
2019-04-20T18:05:06.570Z,46.29
2019-04-20T18:10:14.301Z,47.38
2019-04-20T18:15:21.241Z,49.50
2019-04-20T18:20:14.961Z,51.36
2019-04-20T18:25:53.373Z,53.06
2019-04-20T18:30:43.662Z,54.01
2019-04-20T18:35:46.020Z,54.69
2019-04-20T18:40:55.715Z,56.01
2019-04-20T18:46:15.104Z,57.81
2019-04-20T18:51:03.921Z,59.26
2019-04-20T18:56:09.620Z,59.00
2019-04-20T19:01:15.275Z,59.29
2019-04-20T19:06:21.775Z,59.58
2019-04-20T19:11:28.581Z,60.96
2019-04-20T19:16:52.884Z,61.08
2019-04-20T19:21:45.957Z,61.00
2019-04-20T19:26:58.347Z,60.32
2019-04-20T19:32:17.563Z,59.66
2019-04-20T19:37:15.689Z,59.13
2019-04-20T19:42:29.795Z,57.54
2019-04-20T19:47:38.350Z,57.23
2019-04-20T19:52:51.562Z,58.71
2019-04-20T19:57:51.247Z,59.71
2019-04-20T20:02:41.514Z,60.25
2019-04-20T20:07:52.525Z,61.65
2019-04-20T20:12:58.986Z,62.47
2019-04-20T20:18:19.395Z,62.68
2019-04-20T20:23:10.046Z,62.47
2019-04-20T20:28:27.088Z,62.43
2019-04-20T20:33:39.505Z,63.18
2019-04-20T20:38:36.933Z,62.01
2019-04-20T20:43:49.626Z,62.50
2019-04-20T20:49:06.293Z,62.32
2019-04-20T20:54:03.318Z,61.92
2019-04-20T20:59:07.530Z,60.78
2019-04-20T21:04:06.901Z,61.59
2019-04-20T21:09:12.570Z,62.50
2019-04-20T21:14:23.779Z,62.39
2019-04-20T21:19:45.342Z,61.41
2019-04-20T21:24:38.026Z,60.69
2019-04-20T21:29:49.293Z,61.71
2019-04-20T21:34:55.618Z,62.85
2019-04-20T21:40:01.481Z,62.60
2019-04-20T21:45:10.293Z,61.76
2019-04-20T21:50:31.214Z,61.39
2019-04-20T21:55:19.336Z,60.83
2019-04-20T22:00:40.843Z,61.33
2019-04-20T22:05:42.315Z,61.53
2019-04-20T22:10:50.038Z,62.00
2019-04-20T22:16:01.428Z,62.00
2019-04-20T22:21:11.182Z,63.00
2019-04-20T22:26:20.754Z,63.37
2019-04-20T22:31:16.374Z,63.88
2019-04-20T22:36:25.939Z,64.70
2019-04-20T22:41:30.064Z,66.11
2019-04-20T22:46:37.575Z,66.16
2019-04-20T22:51:53.184Z,67.07
2019-04-20T22:57:01.069Z,68.15
2019-04-20T23:02:00.327Z,69.39
2019-04-20T23:07:03.229Z,70.11
2019-04-20T23:12:12.223Z,70.07
2019-04-20T23:17:18.465Z,69.90
2019-04-20T23:22:23.084Z,69.18
2019-04-20T23:27:31.602Z,68.25
2019-04-20T23:32:35.873Z,67.18
2019-04-20T23:37:42.290Z,66.22
2019-04-20T23:42:53.715Z,66.01
2019-04-20T23:48:05.394Z,65.63
2019-04-20T23:53:29.828Z,65.35
2019-04-20T23:58:19.478Z,65.16
